Time;durP1;ratioP1;P1;durP2;ratioP2;P2;SDS_P1;SDS_P2;PMS_P1;PMS_P2;Temp;Humidity;BMP_temperature;BMP_pressure;BME280_temperature;BME280_humidity;BME280_pressure;Samples;Min_cycle;Max_cycle;Signal;HPM_P1;HPM_P2
2022/08/15 00:00:46;;;;;;;9.82;4.47;;;;;;;27.10;36.69;97776.47;4486820;32;20524;-85
2022/08/15 00:03:17;;;;;;;10.27;4.80;;;;;;;27.10;36.54;97777.31;4472861;32;20145;-85
2022/08/15 00:05:43;;;;;;;10.02;4.65;;;;;;;27.07;36.46;97785.84;4486775;32;20392;-84
2022/08/15 00:08:09;;;;;;;11.48;4.40;;;;;;;27.05;36.58;97777.13;4487176;32;20116;-84
2022/08/15 00:10:35;;;;;;;10.07;4.55;;;;;;;27.03;36.63;97777.34;4472261;32;20395;-85
2022/08/15 00:13:08;;;;;;;9.88;4.20;;;;;;;27.03;36.63;97776.50;4486661;32;20120;-84
2022/08/15 00:15:33;;;;;;;10.27;4.07;;;;;;;27.05;36.60;97777.13;4459683;32;20467;-85
2022/08/15 00:17:59;;;;;;;10.15;4.65;;;;;;;27.03;36.77;97773.81;4486641;32;20111;-86
2022/08/15 00:20:24;;;;;;;9.75;4.20;;;;;;;26.98;36.88;97777.13;4486213;32;20491;-84
2022/08/15 00:22:51;;;;;;;10.82;4.37;;;;;;;27.01;36.90;97781.31;4486411;32;20142;-86
2022/08/15 00:25:16;;;;;;;9.95;4.53;;;;;;;26.93;36.97;97782.37;4472342;32;20415;-87
2022/08/15 00:27:43;;;;;;;10.65;4.93;;;;;;;26.85;37.13;97783.44;4486664;32;20119;-87
2022/08/15 00:30:09;;;;;;;10.40;4.47;;;;;;;26.83;37.48;97785.53;4472914;32;20100;-86
2022/08/15 00:32:36;;;;;;;10.77;5.22;;;;;;;26.77;37.91;97785.53;4486780;32;20127;-87
2022/08/15 00:35:35;;;;;;;12.57;4.82;;;;;;;26.63;38.83;97784.72;4472700;32;20182;-85
2022/08/15 00:37:55;;;;;;;10.57;4.87;;;;;;;26.71;38.91;97783.69;4486419;32;20168;-85
2022/08/15 00:40:22;;;;;;;11.27;5.18;;;;;;;26.77;38.85;97772.88;4472704;32;20115;-86
2022/08/15 00:42:48;;;;;;;10.82;5.00;;;;;;;26.80;38.76;97779.72;4459125;32;20380;-84
2022/08/15 00:45:14;;;;;;;10.25;4.57;;;;;;;26.84;38.65;97776.34;4486626;32;20112;-86
2022/08/15 00:47:41;;;;;;;10.63;5.37;;;;;;;26.79;38.66;97776.19;4486067;32;20097;-85
2022/08/15 00:50:13;;;;;;;10.63;4.83;;;;;;;26.79;38.66;97775.34;4486705;32;20096;-85
2022/08/15 00:52:39;;;;;;;11.52;4.82;;;;;;;26.84;38.54;97770.13;4472000;32;20157;-85
2022/08/15 00:55:15;;;;;;;9.90;4.75;;;;;;;26.82;38.50;97773.03;4472377;32;20097;-86
2022/08/15 00:57:42;;;;;;;10.07;4.82;;;;;;;26.85;38.44;97778.03;4472152;32;20597;-85
2022/08/15 01:00:20;;;;;;;10.63;4.55;;;;;;;26.80;38.61;97785.94;4458886;32;20084;-86
2022/08/15 01:02:45;;;;;;;11.60;4.75;;;;;;;26.83;38.66;97782.81;4486295;32;20115;-86
2022/08/15 01:05:13;;;;;;;10.35;5.05;;;;;;;26.84;38.72;97784.47;4472053;32;20100;-84
2022/08/15 01:07:39;;;;;;;10.68;4.70;;;;;;;26.83;38.94;97779.25;4471951;32;20135;-86
2022/08/15 01:10:06;;;;;;;10.20;4.85;;;;;;;26.89;39.03;97781.16;4471870;32;20088;-85
2022/08/15 01:12:32;;;;;;;11.05;4.78;;;;;;;26.88;39.15;97784.88;4485965;32;20080;-86
2022/08/15 01:15:00;;;;;;;10.98;4.78;;;;;;;26.96;39.08;97784.63;4471993;32;20507;-86
2022/08/15 01:17:28;;;;;;;11.40;5.05;;;;;;;26.99;39.05;97780.69;4486430;32;20100;-85
2022/08/15 01:20:02;;;;;;;10.80;5.28;;;;;;;26.92;39.32;97788.00;4471683;32;20452;-86
2022/08/15 01:23:09;;;;;;;11.20;5.00;;;;;;;26.81;39.62;97786.75;4471981;32;20156;-86
2022/08/15 01:25:58;;;;;;;10.35;4.87;;;;;;;26.91;39.48;97794.41;4485785;32;20115;-86
2022/08/15 01:28:29;;;;;;;;;;;;;;;26.84;39.73;97786.34;4472046;32;20116;-85
2022/08/15 01:30:57;;;;;;;10.30;4.78;;;;;;;26.88;39.71;97785.69;4486166;32;19985;-86
2022/08/15 01:33:24;;;;;;;10.88;5.22;;;;;;;26.80;39.95;97795.94;4473210;32;20085;-87
2022/08/15 01:35:51;;;;;;;;;;;;;;;26.78;40.09;97795.31;4488498;32;20131;-87
2022/08/15 01:38:28;;;;;;;11.70;4.85;;;;;;;26.81;40.12;97792.16;4488324;32;20092;-87
2022/08/15 01:41:05;;;;;;;11.40;5.53;;;;;;;26.69;40.50;97792.00;4474102;32;20110;-87
2022/08/15 01:43:33;;;;;;;10.55;5.03;;;;;;;26.65;40.71;97802.38;4473907;32;20104;-85
2022/08/15 01:46:00;;;;;;;11.10;5.28;;;;;;;26.54;40.99;97802.16;4473943;32;20481;-85
2022/08/15 01:48:41;;;;;;;10.27;4.85;;;;;;;26.53;40.93;97803.22;4488370;32;20138;-85
2022/08/15 01:51:07;;;;;;;11.95;5.55;;;;;;;26.52;40.86;97805.09;4474071;32;20087;-84
2022/08/15 01:53:44;;;;;;;10.93;5.23;;;;;;;26.40;41.12;97804.88;4488204;32;20162;-86
2022/08/15 01:56:30;;;;;;;12.10;5.20;;;;;;;26.33;41.35;97804.09;4488127;32;20104;-84
2022/08/15 01:58:57;;;;;;;12.27;5.90;;;;;;;26.34;41.56;97802.19;4488098;32;20176;-84
2022/08/15 02:01:42;;;;;;;12.45;5.90;;;;;;;26.24;41.83;97803.44;4473962;32;20111;-83
2022/08/15 02:04:08;;;;;;;12.48;5.82;;;;;;;26.26;42.09;97797.84;4487948;32;20073;-83
2022/08/15 02:06:34;;;;;;;12.90;5.97;;;;;;;26.19;42.32;97805.97;4488074;32;20123;-83
2022/08/15 02:09:01;;;;;;;10.98;5.30;;;;;;;26.13;42.62;97804.06;4473737;32;20608;-85
2022/08/15 02:11:28;;;;;;;;;;;;;;;26.16;42.56;97794.75;4488518;32;20096;-85
2022/08/15 02:13:55;;;;;;;13.43;6.12;;;;;;;26.32;42.31;97804.28;4473981;32;20259;-85
2022/08/15 02:16:22;;;;;;;12.80;6.45;;;;;;;26.27;42.46;97802.22;4473940;32;20400;-85
2022/08/15 02:18:48;;;;;;;12.00;6.28;;;;;;;26.26;42.58;97798.66;4473996;32;20130;-85
2022/08/15 02:21:14;;;;;;;12.98;6.30;;;;;;;26.25;42.73;97798.87;4473801;32;20080;-84
2022/08/15 02:23:39;;;;;;;11.82;5.93;;;;;;;26.21;42.84;97792.22;4473666;32;20099;-84
2022/08/15 02:26:08;;;;;;;12.07;6.30;;;;;;;26.17;42.99;97785.59;4488104;32;20128;-83
2022/08/15 02:28:34;;;;;;;12.65;6.07;;;;;;;26.05;43.30;97788.91;4473549;32;20100;-83
2022/08/15 02:31:00;;;;;;;12.70;6.00;;;;;;;26.03;43.38;97785.59;4460450;32;20220;-83
2022/08/15 02:33:27;;;;;;;12.13;6.00;;;;;;;25.99;43.51;97787.03;4487721;32;20100;-82
2022/08/15 02:35:52;;;;;;;11.93;6.12;;;;;;;26.02;43.43;97792.03;4473804;32;20100;-83
2022/08/15 02:38:18;;;;;;;14.30;6.40;;;;;;;26.02;43.46;97789.34;4488042;32;20112;-84
2022/08/15 02:40:43;;;;;;;11.85;6.15;;;;;;;26.02;43.44;97767.75;4487711;32;20329;-85
2022/08/15 02:43:12;;;;;;;12.18;5.80;;;;;;;26.04;43.37;97776.47;4473128;32;20080;-84
2022/08/15 02:45:38;;;;;;;12.35;5.72;;;;;;;26.09;43.27;97775.84;4487810;32;20164;-85
2022/08/15 02:48:08;;;;;;;11.50;5.70;;;;;;;26.07;43.28;97770.63;4473415;32;20130;-85
2022/08/15 02:50:35;;;;;;;11.65;5.57;;;;;;;26.02;43.43;97770.44;4487640;32;20531;-85
2022/08/15 02:53:21;;;;;;;12.13;5.93;;;;;;;26.01;43.38;97770.66;4487747;32;20142;-86
2022/08/15 02:55:47;;;;;;;11.23;6.03;;;;;;;26.06;43.30;97765.47;4487436;32;20545;-86
2022/08/15 02:58:14;;;;;;;11.77;5.62;;;;;;;25.99;43.36;97775.44;4487857;32;20092;-86
2022/08/15 03:00:41;;;;;;;12.00;5.80;;;;;;;26.02;43.39;97769.59;4473649;32;20172;-84
2022/08/15 03:03:10;;;;;;;11.32;5.85;;;;;;;25.97;43.61;97777.50;4487498;32;20084;-84
2022/08/15 03:05:39;;;;;;;11.90;5.93;;;;;;;25.93;43.64;97776.25;4487643;32;20119;-85
2022/08/15 03:08:05;;;;;;;11.60;5.95;;;;;;;25.93;43.57;97771.69;4473476;32;20168;-84
2022/08/15 03:10:30;;;;;;;12.27;6.15;;;;;;;25.91;43.61;97776.47;4487597;32;20088;-85
2022/08/15 03:13:08;;;;;;;11.60;5.53;;;;;;;25.95;43.50;97776.88;4487263;32;20092;-85
2022/08/15 03:15:40;;;;;;;12.82;5.78;;;;;;;25.93;43.78;97777.09;4473376;32;20486;-85
2022/08/15 03:18:05;;;;;;;12.35;6.03;;;;;;;25.95;43.78;97779.59;4487635;32;20084;-84
2022/08/15 03:20:32;;;;;;;12.27;6.03;;;;;;;26.00;43.70;97779.78;4487485;32;20080;-85
2022/08/15 03:22:58;;;;;;;12.13;5.65;;;;;;;25.92;43.91;97783.50;4487528;32;20145;-85
2022/08/15 03:25:25;;;;;;;12.13;6.35;;;;;;;25.93;43.95;97793.28;4487690;32;20119;-85
2022/08/15 03:27:54;;;;;;;12.40;6.28;;;;;;;25.89;43.87;97789.28;4473627;32;20100;-85
2022/08/15 03:30:20;;;;;;;11.38;6.15;;;;;;;25.87;43.92;97792.19;4473121;32;20244;-83
2022/08/15 03:32:55;;;;;;;11.90;5.77;;;;;;;25.84;43.93;97791.78;4473232;32;20471;-82
2022/08/15 03:35:27;;;;;;;12.05;6.22;;;;;;;25.88;43.89;97782.22;4473227;32;20116;-82
2022/08/15 03:37:54;;;;;;;13.30;6.60;;;;;;;25.92;43.87;97783.50;4460090;32;20128;-82
2022/08/15 03:40:19;;;;;;;15.68;6.60;;;;;;;25.90;43.95;97781.00;4473129;32;20084;-83
2022/08/15 03:42:57;;;;;;;12.27;5.72;;;;;;;25.90;44.04;97786.41;4473022;32;20455;-84
2022/08/15 03:45:24;;;;;;;11.68;6.25;;;;;;;25.95;44.04;97784.97;4473123;32;20126;-84
2022/08/15 03:47:50;;;;;;;11.63;6.30;;;;;;;25.94;44.12;97781.47;4487328;32;20119;-84
2022/08/15 03:50:16;;;;;;;13.10;6.28;;;;;;;25.96;44.11;97786.62;4487278;32;20128;-84
2022/08/15 03:52:52;;;;;;;12.68;5.82;;;;;;;25.98;44.09;97792.63;4487623;32;20462;-84
2022/08/15 03:55:19;;;;;;;13.05;5.78;;;;;;;26.01;44.00;97795.75;4486298;32;20092;-83
2022/08/15 03:57:45;;;;;;;13.02;6.57;;;;;;;26.02;43.98;97799.28;4487349;32;20451;-83
2022/08/15 04:00:13;;;;;;;13.43;6.03;;;;;;;26.03;43.90;97795.56;4487168;32;20104;-83
2022/08/15 04:02:39;;;;;;;11.52;5.97;;;;;;;26.03;43.93;97801.78;4487204;32;20097;-82
2022/08/15 04:05:07;;;;;;;11.82;6.07;;;;;;;26.07;43.81;97807.59;4472969;32;20100;-83
2022/08/15 04:07:35;;;;;;;13.20;6.00;;;;;;;26.03;43.53;97807.19;4487205;32;20096;-82
2022/08/15 04:10:05;;;;;;;12.48;6.65;;;;;;;26.12;43.47;97804.31;4473194;32;20089;-82
2022/08/15 04:12:34;;;;;;;12.52;6.12;;;;;;;26.10;43.36;97801.81;4486851;32;20076;-81
2022/08/15 04:15:01;;;;;;;12.07;6.00;;;;;;;26.19;43.28;97815.91;4487141;32;20480;-82
2022/08/15 04:17:27;;;;;;;12.45;6.62;;;;;;;26.28;43.34;97803.88;4487421;32;20092;-81
2022/08/15 04:19:52;;;;;;;13.90;6.60;;;;;;;26.39;42.84;97805.94;4487405;32;20080;-82
2022/08/15 04:22:29;;;;;;;13.35;6.87;;;;;;;26.55;42.56;97803.84;4487277;32;20076;-82
2022/08/15 04:25:00;;;;;;;12.88;6.35;;;;;;;26.59;42.29;97803.22;4487457;32;20088;-82
2022/08/15 04:27:25;;;;;;;12.60;6.60;;;;;;;26.66;42.16;97805.94;4473379;32;20166;-83
2022/08/15 04:29:51;;;;;;;12.15;6.28;;;;;;;26.79;41.98;97807.75;4487266;32;20440;-83
2022/08/15 04:32:24;;;;;;;13.95;6.35;;;;;;;26.76;42.11;97806.31;4487103;32;20157;-82
2022/08/15 04:34:50;;;;;;;11.12;5.97;;;;;;;26.80;41.94;97809.44;4487221;32;20144;-83
2022/08/15 04:37:15;;;;;;;12.25;6.37;;;;;;;27.01;41.66;97802.94;4472780;32;20518;-84
2022/08/15 04:39:41;;;;;;;12.43;6.37;;;;;;;27.19;41.65;97799.53;4487136;32;20080;-83
2022/08/15 04:42:06;;;;;;;12.10;6.22;;;;;;;27.29;41.31;97816.16;4487093;32;20080;-83
2022/08/15 04:44:32;;;;;;;12.75;6.37;;;;;;;27.31;40.98;97808.66;4486913;32;20132;-83
2022/08/15 04:46:57;;;;;;;12.82;6.32;;;;;;;27.30;41.18;97812.41;4472536;32;20410;-82
2022/08/15 04:49:23;;;;;;;14.00;6.25;;;;;;;27.56;40.90;97814.13;4486917;32;20079;-83
2022/08/15 04:51:48;;;;;;;13.35;6.45;;;;;;;27.55;40.42;97809.78;4486762;32;20107;-83
2022/08/15 04:54:16;;;;;;;13.02;6.00;;;;;;;27.44;40.85;97807.75;4472723;32;20128;-83
2022/08/15 04:56:42;;;;;;;12.82;6.00;;;;;;;27.67;39.48;97809.94;4487095;32;20089;-84
2022/08/15 04:59:08;;;;;;;11.02;6.30;;;;;;;27.62;39.69;97809.72;4472370;32;20123;-83
2022/08/15 05:01:33;;;;;;;13.32;6.00;;;;;;;27.74;39.21;97793.63;4486764;32;20084;-84
2022/08/15 05:03:59;;;;;;;11.02;5.90;;;;;;;27.97;39.03;97793.94;4486551;32;20475;-84
2022/08/15 05:06:24;;;;;;;11.43;5.78;;;;;;;28.11;38.80;97791.94;4486318;32;20096;-84
2022/08/15 05:08:50;;;;;;;11.65;6.10;;;;;;;28.36;38.32;97793.81;4459300;32;20385;-83
2022/08/15 05:11:19;;;;;;;12.65;6.10;;;;;;;28.63;38.38;97789.00;4486375;32;20127;-85
2022/08/15 05:13:45;;;;;;;10.15;5.28;;;;;;;28.52;38.47;97792.44;4472151;32;20100;-84
2022/08/15 05:16:10;;;;;;;12.80;6.55;;;;;;;28.76;38.99;97788.88;4486794;32;20111;-85
2022/08/15 05:18:38;;;;;;;11.55;6.50;;;;;;;28.94;39.13;97788.03;4472453;32;20114;-83
2022/08/15 05:21:03;;;;;;;;;;;;;;;29.16;38.84;97783.00;4472744;32;20115;-82
2022/08/15 05:23:30;;;;;;;12.95;5.60;;;;;;;29.36;37.96;97788.19;4472550;32;20018;-84
2022/08/15 05:25:57;;;;;;;13.27;6.50;;;;;;;29.51;37.84;97785.03;4486490;32;20100;-83
2022/08/15 05:28:24;;;;;;;11.73;5.70;;;;;;;29.54;37.83;97778.34;4472300;32;20155;-82
2022/08/15 05:30:51;;;;;;;12.27;6.00;;;;;;;29.60;36.74;97782.84;4472170;32;20436;-83
2022/08/15 05:33:21;;;;;;;10.98;5.53;;;;;;;29.56;36.88;97782.47;4486564;32;20132;-83
2022/08/15 05:35:49;;;;;;;12.65;6.12;;;;;;;29.69;36.66;97776.03;4486515;32;20127;-83
2022/08/15 05:38:38;;;;;;;12.20;6.37;;;;;;;29.63;37.21;97779.62;4458908;32;20092;-82
2022/08/15 05:41:06;;;;;;;;;;;;;;;29.59;37.32;97787.44;4486006;32;20142;-83
2022/08/15 05:44:01;;;;;;;12.37;5.78;;;;;;;29.65;37.04;97784.84;4471921;32;19998;-84
2022/08/15 05:46:26;;;;;;;11.55;6.40;;;;;;;29.69;36.75;97791.47;4471879;32;20154;-80
2022/08/15 05:49:30;;;;;;;12.35;6.30;;;;;;;29.76;36.45;97789.53;4486038;32;20092;-84
2022/08/15 05:52:07;;;;;;;11.48;6.22;;;;;;;29.89;36.07;97792.03;4405437;32;20094;-83
2022/08/15 05:54:54;;;;;;;11.47;5.77;;;;;;;29.94;35.99;97788.59;4404474;32;20110;-83
2022/08/15 05:57:44;;;;;;;10.80;5.72;;;;;;;30.08;35.47;97791.97;4405097;32;20124;-84
2022/08/15 06:00:11;;;;;;;12.95;6.75;;;;;;;30.10;35.70;97790.66;4404107;32;20087;-84
2022/08/15 06:02:44;;;;;;;12.20;6.40;;;;;;;30.23;35.57;97794.22;4393035;32;20104;-86
2022/08/15 06:05:40;;;;;;;12.43;6.25;;;;;;;30.32;35.18;97795.56;4404241;32;20118;-86
2022/08/15 06:08:11;;;;;;;12.50;6.12;;;;;;;30.41;34.74;97805.00;4395000;32;20180;-83
2022/08/15 06:10:42;;;;;;;14.73;6.65;;;;;;;30.32;35.18;97804.53;4388708;32;20120;-82
2022/08/15 06:13:15;;;;;;;12.48;6.40;;;;;;;30.40;35.16;97808.78;4390946;32;20103;-84
2022/08/15 06:15:58;;;;;;;13.62;6.72;;;;;;;30.47;35.32;97803.25;4391016;32;20098;-84
2022/08/15 06:18:24;;;;;;;13.15;6.47;;;;;;;30.47;35.34;97798.63;4391532;32;20183;-81
2022/08/15 06:20:55;;;;;;;13.13;6.35;;;;;;;30.58;35.16;97799.72;4393205;32;20103;-81
2022/08/15 06:23:36;;;;;;;12.43;6.62;;;;;;;30.59;35.37;97801.34;4393224;32;20157;-83
2022/08/15 06:26:27;;;;;;;13.43;5.82;;;;;;;30.79;35.18;97801.00;4393675;32;20193;-81
2022/08/15 06:29:11;;;;;;;13.70;6.12;;;;;;;30.95;34.26;97804.91;4486623;32;20118;-80
2022/08/15 06:31:41;;;;;;;13.48;6.50;;;;;;;31.29;33.68;97802.31;4486892;32;20112;-81
2022/08/15 06:34:07;;;;;;;13.20;6.32;;;;;;;31.42;33.74;97801.22;4472869;32;20492;-80
2022/08/15 06:37:31;;;;;;;13.65;6.65;;;;;;;31.48;33.89;97800.28;4487880;32;20111;-80
2022/08/15 06:39:59;;;;;;;13.62;6.40;;;;;;;31.51;34.00;97800.59;4378266;32;20499;-81
2022/08/15 06:42:28;;;;;;;15.38;6.87;;;;;;;31.85;33.38;97799.84;4377866;32;20107;-81
2022/08/15 06:44:56;;;;;;;11.23;6.10;;;;;;;32.01;32.88;97792.75;4377928;32;20109;-80
2022/08/15 06:47:23;;;;;;;16.58;6.72;;;;;;;32.03;32.90;97791.50;4377906;32;20158;-81
2022/08/15 06:49:53;;;;;;;14.02;6.55;;;;;;;32.18;32.40;97790.94;4365465;32;20106;-79
2022/08/15 06:52:20;;;;;;;12.43;6.20;;;;;;;32.30;32.35;97799.84;4377901;32;20111;-80
2022/08/15 06:54:46;;;;;;;13.70;5.95;;;;;;;32.29;32.28;97803.63;4377722;32;20415;-80
2022/08/15 06:57:29;;;;;;;12.75;6.72;;;;;;;32.46;32.12;97802.81;4377786;32;20184;-79
2022/08/15 07:00:22;;;;;;;13.40;6.50;;;;;;;32.57;32.04;97807.38;4377906;32;20111;-80
2022/08/15 07:02:54;;;;;;;11.43;5.75;;;;;;;32.55;32.20;97804.03;4365163;32;20150;-82
2022/08/15 07:05:26;;;;;;;15.30;6.37;;;;;;;32.79;31.66;97801.13;4377781;32;20083;-80
2022/08/15 07:08:03;;;;;;;13.75;7.03;;;;;;;32.63;31.96;97795.44;4362554;32;20154;-79
2022/08/15 07:10:53;;;;;;;15.82;6.70;;;;;;;32.68;31.85;97800.13;4376136;32;20190;-80
2022/08/15 07:13:26;;;;;;;12.93;6.20;;;;;;;32.84;31.61;97795.75;4376631;32;20122;-79
2022/08/15 07:16:14;;;;;;;12.80;6.35;;;;;;;32.82;31.47;97798.72;4421684;32;20077;-79
2022/08/15 07:18:44;;;;;;;14.60;6.68;;;;;;;32.94;31.48;97795.06;4486945;32;20096;-79
2022/08/15 07:21:10;;;;;;;12.77;6.28;;;;;;;33.09;31.07;97797.97;4473229;32;20130;-80
2022/08/15 07:23:57;;;;;;;12.85;6.70;;;;;;;33.16;30.94;97790.44;4487298;32;20096;-79
2022/08/15 07:26:25;;;;;;;13.23;6.55;;;;;;;33.23;30.86;97802.00;4486483;32;20141;-79
2022/08/15 07:28:51;;;;;;;13.32;6.37;;;;;;;33.37;30.36;97804.34;4473013;32;20135;-80
2022/08/15 07:31:20;;;;;;;12.90;6.37;;;;;;;33.41;30.16;97800.00;4487505;32;20115;-79
2022/08/15 07:33:48;;;;;;;11.57;6.10;;;;;;;33.45;29.97;97804.69;4472913;32;20080;-79
2022/08/15 07:36:24;;;;;;;14.57;6.85;;;;;;;33.53;29.89;97799.88;4487183;32;20598;-79
2022/08/15 07:38:50;;;;;;;12.00;6.32;;;;;;;33.52;29.82;97795.50;4459108;32;20169;-78
2022/08/15 07:41:23;;;;;;;14.10;6.18;;;;;;;33.56;29.98;97810.28;4473103;32;20452;-79
2022/08/15 07:44:18;;;;;;;12.98;6.62;;;;;;;33.40;30.51;97812.84;4473048;32;20403;-79
2022/08/15 07:46:56;;;;;;;12.00;6.10;;;;;;;33.23;30.78;97809.38;4487580;32;20092;-78
2022/08/15 07:49:30;;;;;;;13.57;6.30;;;;;;;33.43;30.41;97808.78;4472909;32;20165;-78
2022/08/15 07:52:17;;;;;;;13.25;6.60;;;;;;;33.67;30.25;97801.97;4472936;32;20169;-80
2022/08/15 07:54:43;;;;;;;13.20;6.90;;;;;;;33.81;29.81;97799.66;4486942;32;20093;-80
2022/08/15 07:57:22;;;;;;;13.23;6.97;;;;;;;33.61;30.32;97796.66;4477936;32;20088;-80
2022/08/15 08:00:16;;;;;;;12.23;6.07;;;;;;;33.55;29.93;97803.16;4469680;32;20132;-78
2022/08/15 08:02:50;;;;;;;12.55;6.65;;;;;;;33.74;29.88;97801.75;4471175;32;20097;-78
2022/08/15 08:05:16;;;;;;;12.68;6.47;;;;;;;33.72;29.93;97803.91;4471186;32;20437;-79
2022/08/15 08:07:44;;;;;;;13.32;6.35;;;;;;;33.47;30.24;97807.19;4457055;32;20069;-79
2022/08/15 08:10:18;;;;;;;15.77;6.87;;;;;;;33.56;30.33;97810.28;4469815;32;20105;-79
2022/08/15 08:12:56;;;;;;;12.50;6.30;;;;;;;33.55;30.45;97803.97;4471177;32;20089;-79
2022/08/15 08:15:34;;;;;;;12.52;6.45;;;;;;;33.61;30.22;97810.31;4470723;32;20109;-78
2022/08/15 08:18:08;;;;;;;;;;;;;;;33.41;30.86;97814.47;4457290;32;20084;-78
2022/08/15 08:20:45;;;;;;;12.63;6.28;;;;;;;33.65;30.43;97806.03;4456870;32;20037;-79
2022/08/15 08:23:29;;;;;;;13.43;6.32;;;;;;;33.48;30.23;97820.56;4471353;32;20091;-79
2022/08/15 08:26:00;;;;;;;14.30;7.03;;;;;;;33.35;30.65;97814.69;4470857;32;20080;-79
2022/08/15 08:29:04;;;;;;;14.00;6.15;;;;;;;33.02;31.34;97816.44;4470962;32;20616;-80
2022/08/15 08:31:42;;;;;;;13.13;7.03;;;;;;;33.44;30.66;97815.91;4467848;32;20430;-79
2022/08/15 08:34:19;;;;;;;13.10;5.87;;;;;;;33.56;30.59;97813.84;4471125;32;20149;-79
2022/08/15 08:36:53;;;;;;;12.68;6.12;;;;;;;33.24;31.31;97813.72;4470989;32;20084;-79
2022/08/15 08:39:30;;;;;;;12.55;6.55;;;;;;;33.70;30.48;97808.81;4470891;32;21014;-79
2022/08/15 08:41:58;;;;;;;14.00;7.20;;;;;;;33.65;30.73;97809.59;4470352;32;20245;-78
2022/08/15 08:44:30;;;;;;;12.95;6.43;;;;;;;34.02;29.86;97806.13;4471158;32;20084;-79
2022/08/15 08:47:36;;;;;;;13.07;6.37;;;;;;;34.13;29.67;97808.94;4470749;32;20081;-79
2022/08/15 08:50:32;;;;;;;15.55;6.57;;;;;;;34.10;29.58;97809.47;4456588;32;20564;-79
2022/08/15 08:53:11;;;;;;;13.02;6.28;;;;;;;33.96;29.50;97803.59;4470669;32;20123;-79
2022/08/15 08:55:47;;;;;;;12.82;5.80;;;;;;;34.06;28.99;97800.97;4470801;32;20092;-79
2022/08/15 08:58:30;;;;;;;12.50;6.15;;;;;;;33.60;29.67;97804.03;4456756;32;20084;-80
2022/08/15 09:00:56;;;;;;;11.88;5.93;;;;;;;33.52;29.94;97799.06;4456699;32;20438;-79
2022/08/15 09:03:48;;;;;;;13.55;6.47;;;;;;;33.63;29.59;97800.84;4470876;32;20401;-79
2022/08/15 09:06:22;;;;;;;13.60;5.90;;;;;;;32.94;30.65;97808.69;4456791;32;20088;-78
2022/08/15 09:08:58;;;;;;;12.23;5.97;;;;;;;33.34;29.54;97805.69;4470825;32;20092;-78
2022/08/15 09:11:27;;;;;;;12.23;6.18;;;;;;;32.75;29.19;97797.25;4456502;32;20135;-78
2022/08/15 09:13:55;;;;;;;12.15;6.12;;;;;;;32.56;29.55;97797.53;4456348;32;20105;-79
2022/08/15 09:16:28;;;;;;;12.63;6.15;;;;;;;32.94;29.66;97797.78;4470231;32;20578;-79
2022/08/15 09:19:23;;;;;;;11.77;6.18;;;;;;;32.96;29.10;97795.63;4470493;32;20088;-80
2022/08/15 09:21:50;;;;;;;12.00;6.65;;;;;;;32.96;29.47;97793.72;4456238;32;20153;-79
2022/08/15 09:24:19;;;;;;;13.52;6.15;;;;;;;33.01;29.31;97793.78;4470305;32;20113;-79
2022/08/15 09:27:10;;;;;;;11.55;5.90;;;;;;;32.84;29.74;97790.28;4469192;32;20164;-79
2022/08/15 09:29:42;;;;;;;17.37;6.65;;;;;;;32.71;29.70;97783.28;4470282;32;20150;-80
2022/08/15 09:32:13;;;;;;;11.32;6.20;;;;;;;32.81;29.41;97779.88;4469005;32;20102;-79
2022/08/15 09:34:39;;;;;;;11.10;5.93;;;;;;;32.80;29.84;97786.38;4470395;32;20742;-80
2022/08/15 09:37:19;;;;;;;11.57;6.25;;;;;;;32.87;29.53;97787.03;4470220;32;20137;-79
2022/08/15 09:40:04;;;;;;;12.52;6.20;;;;;;;32.59;29.71;97777.94;4470385;32;20437;-78
2022/08/15 09:43:11;;;;;;;11.80;5.75;;;;;;;32.74;29.33;97779.22;4470084;32;20142;-80
2022/08/15 09:45:49;;;;;;;12.02;5.50;;;;;;;32.77;28.74;97784.19;4406201;32;20094;-79
2022/08/15 09:48:14;;;;;;;12.68;5.37;;;;;;;32.62;27.49;97777.44;4398053;32;20109;-79
2022/08/15 09:50:52;;;;;;;12.43;5.62;;;;;;;32.75;27.45;97783.63;4421470;32;20118;-79
2022/08/15 09:53:23;;;;;;;11.35;5.45;;;;;;;32.67;27.76;97771.25;4421185;32;20155;-79
2022/08/15 09:55:51;;;;;;;11.00;5.87;;;;;;;32.63;27.95;97773.63;4423584;32;20184;-79
2022/08/15 09:58:26;;;;;;;12.35;5.97;;;;;;;32.72;27.95;97768.56;4410514;32;20824;-80
2022/08/15 10:01:03;;;;;;;11.93;6.12;;;;;;;32.80;27.77;97775.47;4408104;32;20117;-80
2022/08/15 10:03:44;;;;;;;12.93;5.85;;;;;;;32.53;28.56;97768.84;4408009;32;20086;-80
2022/08/15 10:06:11;;;;;;;11.77;5.80;;;;;;;32.29;29.22;97776.37;4422198;32;20143;-80
2022/08/15 10:08:52;;;;;;;;;;;;;;;32.35;29.18;97762.81;4423711;32;20106;-79
2022/08/15 10:11:30;;;;;;;11.88;6.10;;;;;;;32.68;28.83;97757.34;4423529;32;20036;-79
2022/08/15 10:14:06;;;;;;;10.85;5.57;;;;;;;32.90;28.32;97757.34;4423058;32;20097;-79
2022/08/15 10:16:40;;;;;;;11.65;5.90;;;;;;;32.47;28.38;97758.94;4410520;32;20175;-80
2022/08/15 10:19:27;;;;;;;11.25;5.62;;;;;;;32.28;28.68;97758.38;4423310;32;20134;-79
2022/08/15 10:21:58;;;;;;;11.20;6.05;;;;;;;32.83;28.19;97747.72;4435455;32;20225;-80
2022/08/15 10:24:38;;;;;;;12.88;5.18;;;;;;;32.96;27.79;97741.06;4462951;32;20111;-79
2022/08/15 10:27:08;;;;;;;11.48;5.05;;;;;;;33.02;26.96;97749.03;4458584;32;20172;-82
2022/08/15 10:29:36;;;;;;;10.88;4.60;;;;;;;32.63;27.04;97751.00;4471639;32;20502;-82
2022/08/15 10:32:03;;;;;;;11.60;5.45;;;;;;;32.57;26.70;97750.09;4457674;32;20121;-82
2022/08/15 10:34:51;;;;;;;10.52;5.57;;;;;;;32.63;26.48;97738.19;4457698;32;20089;-81
2022/08/15 10:37:29;;;;;;;11.95;5.65;;;;;;;32.50;27.52;97743.97;4457729;32;20124;-82
2022/08/15 10:40:00;;;;;;;13.62;6.18;;;;;;;32.59;27.41;97744.37;4472033;32;20092;-82
2022/08/15 10:42:39;;;;;;;10.38;5.07;;;;;;;32.53;27.73;97735.31;4471512;32;20081;-82
2022/08/15 10:45:41;;;;;;;11.63;5.25;;;;;;;32.46;26.87;97729.19;4470772;32;20493;-81
2022/08/15 10:48:38;;;;;;;12.25;5.55;;;;;;;32.53;26.61;97727.94;4471902;32;20396;-82
2022/08/15 10:51:38;;;;;;;9.70;4.72;;;;;;;32.82;27.05;97735.97;4452727;32;20096;-82
2022/08/15 10:54:09;;;;;;;11.98;5.35;;;;;;;32.88;26.20;97734.16;4471611;32;20471;-80
2022/08/15 10:56:38;;;;;;;10.05;4.65;;;;;;;33.00;26.32;97725.84;4471515;32;20136;-80
2022/08/15 10:59:10;;;;;;;9.93;4.90;;;;;;;32.99;26.34;97724.97;4471863;32;20124;-80
2022/08/15 11:01:37;;;;;;;10.40;5.20;;;;;;;32.87;26.58;97716.94;4457478;32;20115;-79
2022/08/15 11:04:06;;;;;;;9.98;4.70;;;;;;;33.01;26.39;97719.28;4457196;32;20092;-80
2022/08/15 11:06:34;;;;;;;11.35;4.47;;;;;;;32.99;25.42;97724.97;4456991;32;20442;-79
2022/08/15 11:09:09;;;;;;;12.70;4.90;;;;;;;32.95;25.35;97728.50;4457540;32;20135;-80
2022/08/15 11:11:51;;;;;;;9.50;3.72;;;;;;;32.82;25.52;97724.22;4457067;32;20096;-80
2022/08/15 11:14:21;;;;;;;10.38;4.55;;;;;;;33.12;25.26;97710.16;4457848;32;20123;-80
2022/08/15 11:16:51;;;;;;;9.57;4.20;;;;;;;32.85;24.35;97719.09;4471465;32;20180;-80
2022/08/15 11:19:30;;;;;;;9.73;4.28;;;;;;;32.95;24.30;97712.94;4471336;32;20088;-81
2022/08/15 11:22:01;;;;;;;9.07;4.00;;;;;;;32.86;24.90;97719.94;4470569;32;20111;-80
2022/08/15 11:24:37;;;;;;;9.52;3.90;;;;;;;32.36;23.54;97718.97;4471005;32;20084;-80
2022/08/15 11:27:19;;;;;;;9.65;3.95;;;;;;;32.80;23.38;97710.03;4457607;32;20466;-81
2022/08/15 11:29:46;;;;;;;9.27;3.83;;;;;;;32.80;23.73;97707.28;4457304;32;20096;-80
2022/08/15 11:32:15;;;;;;;;;;;;;;;32.87;24.62;97713.38;4456843;32;20466;-80
2022/08/15 11:34:44;;;;;;;10.73;4.43;;;;;;;33.16;23.89;97707.75;4457808;32;19996;-80
2022/08/15 11:37:22;;;;;;;8.55;3.90;;;;;;;32.85;23.61;97712.81;4471254;32;20126;-80
2022/08/15 11:40:06;;;;;;;10.10;4.55;;;;;;;32.44;23.79;97707.63;4456896;32;20151;-81
2022/08/15 11:42:39;;;;;;;9.38;4.03;;;;;;;32.57;23.59;97705.63;4456171;32;20315;-80
2022/08/15 11:45:26;;;;;;;9.05;4.15;;;;;;;32.74;23.77;97702.84;4471301;32;20110;-80
2022/08/15 11:47:55;;;;;;;12.23;4.63;;;;;;;32.93;24.18;97690.53;4444317;32;20084;-80
2022/08/15 11:50:27;;;;;;;10.98;4.60;;;;;;;32.57;24.65;97706.47;4457117;32;20169;-80
2022/08/15 11:52:57;;;;;;;10.85;4.47;;;;;;;32.42;25.34;97704.34;4456865;32;20464;-81